Time;durP1;ratioP1;P1;durP2;ratioP2;P2;SDS_P1;SDS_P2;PMS_P1;PMS_P2;Temp;Humidity;BMP_temperature;BMP_pressure;BME280_temperature;BME280_humidity;BME280_pressure;Samples;Min_cycle;Max_cycle;Signal;HPM_P1;HPM_P2
2022/09/04 00:01:43;;;;;;;;;1.00;1.00;;;;;23.22;41.89;101506.56;110490;1262;14497;-45
2022/09/04 00:04:10;;;;;;;;;1.00;1.00;;;;;23.23;41.90;101506.38;110473;1262;14425;-46
2022/09/04 00:06:38;;;;;;;;;1.00;1.00;;;;;23.23;41.94;101506.45;110604;1261;13167;-46
2022/09/04 00:09:05;;;;;;;;;1.00;1.00;;;;;23.23;41.95;101506.65;110536;1262;13046;-46
2022/09/04 00:11:33;;;;;;;;;1.33;1.33;;;;;23.20;41.98;101503.05;110472;1261;15218;-46
2022/09/04 00:14:00;;;;;;;;;1.00;1.00;;;;;23.21;41.95;101502.50;110485;1262;14802;-46
2022/09/04 00:16:27;;;;;;;;;2.00;1.33;;;;;23.22;41.98;101504.38;110598;1261;14347;-46
2022/09/04 00:18:55;;;;;;;;;1.00;1.00;;;;;23.23;41.92;101500.52;110288;1262;14863;-46
2022/09/04 00:21:22;;;;;;;;;1.00;1.00;;;;;23.23;41.96;101504.90;110374;1262;15691;-47
2022/09/04 00:23:49;;;;;;;;;1.00;1.00;;;;;23.23;42.01;101501.91;110546;1262;13051;-46
2022/09/04 00:26:16;;;;;;;;;1.00;1.00;;;;;23.21;42.05;101499.27;110485;1261;15294;-45
2022/09/04 00:28:44;;;;;;;;;1.00;1.00;;;;;23.23;42.06;101503.88;110461;1262;15762;-45
2022/09/04 00:31:12;;;;;;;;;1.00;1.00;;;;;23.22;42.08;101504.54;110501;1262;14040;-47
2022/09/04 00:33:40;;;;;;;;;1.00;1.00;;;;;23.23;42.01;101507.71;110479;1261;15192;-44
2022/09/04 00:36:07;;;;;;;;;1.00;1.00;;;;;23.23;42.08;101509.28;110477;1262;13266;-46
2022/09/04 00:38:34;;;;;;;;;1.00;1.00;;;;;23.23;42.07;101505.52;110482;1262;14844;-45
2022/09/04 00:41:01;;;;;;;;;1.00;1.00;;;;;23.22;42.13;101505.39;110497;1261;13915;-45
2022/09/04 00:43:29;;;;;;;;;1.00;1.00;;;;;23.22;42.14;101506.35;110481;1262;14780;-45
2022/09/04 00:45:57;;;;;;;;;1.00;1.00;;;;;23.22;42.15;101514.93;110587;1262;14016;-45
2022/09/04 00:48:27;;;;;;;;;1.00;1.00;;;;;23.21;42.20;101515.77;110420;1262;15011;-46
2022/09/04 00:50:54;;;;;;;;;2.00;1.67;;;;;23.22;42.24;101516.91;110518;1261;13164;-43
2022/09/04 00:53:22;;;;;;;;;1.00;1.00;;;;;23.22;42.26;101520.16;110392;1261;14098;-43
2022/09/04 00:55:51;;;;;;;;;1.00;1.00;;;;;23.23;42.20;101518.45;110408;1262;14174;-46
2022/09/04 00:58:19;;;;;;;;;1.00;1.00;;;;;23.22;42.24;101521.25;110419;1261;15397;-47
2022/09/04 01:00:47;;;;;;;;;1.00;1.00;;;;;23.22;42.28;101521.25;110497;1261;14761;-45
2022/09/04 01:03:14;;;;;;;;;1.33;1.33;;;;;23.22;42.28;101516.71;110522;1262;12574;-46
2022/09/04 01:05:43;;;;;;;;;1.00;1.00;;;;;23.21;42.36;101518.88;110513;1261;15004;-47
2022/09/04 01:08:10;;;;;;;;;1.00;1.00;;;;;23.19;42.39;101519.35;110552;1261;13452;-47
2022/09/04 01:10:37;;;;;;;;;1.00;1.00;;;;;23.20;42.42;101522.80;110508;1261;14948;-42
2022/09/04 01:13:04;;;;;;;;;1.00;1.00;;;;;23.19;42.41;101523.60;110518;1262;14786;-46
2022/09/04 01:15:32;;;;;;;;;2.00;2.00;;;;;23.20;42.43;101525.72;110458;1262;15574;-46
2022/09/04 01:17:59;;;;;;;;;2.00;1.00;;;;;23.19;42.45;101523.60;110507;1261;13748;-46
2022/09/04 01:20:26;;;;;;;;;2.00;2.00;;;;;23.20;42.46;101524.83;110462;1262;15351;-46
2022/09/04 01:22:53;;;;;;;;;1.00;1.00;;;;;23.18;42.52;101527.30;110476;1262;14811;-45
2022/09/04 01:25:21;;;;;;;;;1.00;1.00;;;;;23.20;42.51;101525.68;110455;1262;14233;-46
2022/09/04 01:27:48;;;;;;;;;1.00;1.00;;;;;23.20;42.48;101529.00;110632;1261;20187;-47
2022/09/04 01:30:15;;;;;;;;;1.00;1.00;;;;;23.20;42.54;101525.16;110536;1262;12448;-46
2022/09/04 01:32:43;;;;;;;;;1.00;1.00;;;;;23.19;42.58;101522.70;110439;1262;18047;-45
2022/09/04 01:35:10;;;;;;;;;1.00;1.00;;;;;23.19;42.53;101520.73;110512;1261;14451;-46
2022/09/04 01:37:38;;;;;;;;;1.00;1.00;;;;;23.19;42.59;101519.56;110490;1261;14694;-46
2022/09/04 01:40:05;;;;;;;;;3.00;2.00;;;;;23.21;42.64;101518.15;110628;1261;15845;-48
2022/09/04 01:42:33;;;;;;;;;2.00;2.00;;;;;23.20;42.59;101516.80;110462;1262;15145;-46
2022/09/04 01:45:00;;;;;;;;;1.00;1.00;;;;;23.19;42.61;101515.19;110496;1262;18046;-46
2022/09/04 01:47:27;;;;;;;;;1.00;1.00;;;;;23.20;42.56;101515.49;110477;1262;15890;-45
2022/09/04 01:49:55;;;;;;;;;1.67;1.67;;;;;23.20;42.61;101514.56;110497;1262;15025;-46
2022/09/04 01:52:22;;;;;;;;;2.00;2.00;;;;;23.21;42.57;101515.35;110476;1262;15491;-44
2022/09/04 01:54:49;;;;;;;;;1.00;1.00;;;;;23.19;42.58;101515.52;110472;1262;14963;-46
2022/09/04 01:57:16;;;;;;;;;1.67;1.00;;;;;23.20;42.62;101516.80;110513;1262;13227;-44
2022/09/04 01:59:44;;;;;;;;;1.00;1.00;;;;;23.19;42.67;101514.51;110484;1262;16096;-45
2022/09/04 02:02:12;;;;;;;;;1.00;1.00;;;;;23.20;42.66;101517.51;110471;1261;14957;-46
2022/09/04 02:04:39;;;;;;;;;1.00;1.00;;;;;23.19;42.68;101518.33;110531;1262;14347;-46
2022/09/04 02:07:06;;;;;;;;;1.00;1.00;;;;;23.18;42.75;101519.86;110491;1262;15905;-45
2022/09/04 02:09:33;;;;;;;;;1.00;1.00;;;;;23.18;42.74;101514.39;110453;1262;15461;-45
2022/09/04 02:12:01;;;;;;;;;1.33;1.33;;;;;23.17;42.73;101517.39;110501;1262;13049;-46
2022/09/04 02:14:28;;;;;;;;;1.00;1.00;;;;;23.17;42.77;101517.77;110554;1261;15464;-45
2022/09/04 02:16:58;;;;;;;;;1.00;1.00;;;;;23.17;42.71;101518.02;110519;1262;14653;-45
2022/09/04 02:19:25;;;;;;;;;1.00;1.00;;;;;23.19;42.73;101515.42;110466;1262;14557;-47
2022/09/04 02:21:52;;;;;;;;;1.67;1.00;;;;;23.19;42.80;101516.66;110508;1262;14704;-46
2022/09/04 02:24:20;;;;;;;;;1.00;1.00;;;;;23.19;42.78;101511.94;110533;1262;13315;-46
2022/09/04 02:26:47;;;;;;;;;1.00;1.00;;;;;23.19;42.74;101512.31;110536;1261;15869;-45
2022/09/04 02:29:14;;;;;;;;;1.00;1.00;;;;;23.19;42.76;101512.30;110452;1262;14708;-46
2022/09/04 02:31:41;;;;;;;;;1.00;1.00;;;;;23.17;42.73;101512.10;110463;1262;15335;-46
2022/09/04 02:34:08;;;;;;;;;2.00;1.00;;;;;23.18;42.80;101514.94;110481;1262;14950;-45
2022/09/04 02:36:36;;;;;;;;;2.00;1.00;;;;;23.16;42.80;101514.02;110457;1262;13643;-45
2022/09/04 02:39:03;;;;;;;;;1.00;1.00;;;;;23.15;42.80;101508.15;110531;1261;13232;-42
2022/09/04 02:41:30;;;;;;;;;1.67;1.67;;;;;23.16;42.82;101508.95;110474;1262;14415;-46
2022/09/04 02:43:58;;;;;;;;;1.00;1.00;;;;;23.15;42.85;101508.48;110523;1262;15204;-47
2022/09/04 02:46:25;;;;;;;;;1.00;1.00;;;;;23.17;42.86;101506.49;110579;1261;15379;-46
2022/09/04 02:48:52;;;;;;;;;1.00;1.00;;;;;23.17;42.81;101510.81;110573;1261;15237;-46
2022/09/04 02:51:20;;;;;;;;;1.00;1.00;;;;;23.16;42.80;101508.75;110526;1262;13080;-46
2022/09/04 02:53:47;;;;;;;;;1.67;1.67;;;;;23.17;42.85;101508.86;110505;1262;13721;-46
2022/09/04 02:56:14;;;;;;;;;1.00;1.00;;;;;23.17;42.86;101510.29;110505;1261;15044;-47
2022/09/04 02:58:42;;;;;;;;;1.00;1.00;;;;;23.18;42.86;101510.77;110511;1262;15702;-46
2022/09/04 03:01:10;;;;;;;;;1.00;1.00;;;;;23.17;42.86;101507.55;110506;1262;14899;-46
2022/09/04 03:03:37;;;;;;;;;1.33;1.33;;;;;23.17;42.81;101506.25;110468;1262;14850;-46
2022/09/04 03:06:04;;;;;;;;;1.00;1.00;;;;;23.17;42.87;101510.70;110533;1261;13113;-47
2022/09/04 03:08:32;;;;;;;;;1.00;1.00;;;;;23.16;42.89;101511.34;110484;1261;13792;-45
2022/09/04 03:10:59;;;;;;;;;1.33;1.33;;;;;23.16;42.95;101511.31;110519;1262;14763;-46
2022/09/04 03:13:26;;;;;;;;;2.00;2.00;;;;;23.16;42.92;101511.35;110511;1262;15120;-46
2022/09/04 03:15:54;;;;;;;;;1.00;1.00;;;;;23.16;42.93;101514.55;110492;1262;14403;-46
2022/09/04 03:18:21;;;;;;;;;1.00;1.00;;;;;23.17;42.94;101516.31;110542;1262;12944;-45
2022/09/04 03:20:48;;;;;;;;;1.00;1.00;;;;;23.16;42.94;101514.77;110479;1262;14723;-47
2022/09/04 03:23:16;;;;;;;;;1.00;1.00;;;;;23.17;43.00;101515.27;110540;1262;13534;-44
2022/09/04 03:25:43;;;;;;;;;1.00;1.00;;;;;23.16;42.94;101514.60;110611;1262;14862;-45
2022/09/04 03:28:10;;;;;;;;;2.00;2.00;;;;;23.16;42.95;101508.24;110478;1261;14386;-47
2022/09/04 03:30:37;;;;;;;;;1.00;1.00;;;;;23.17;42.93;101510.83;110479;1262;14748;-44
2022/09/04 03:33:05;;;;;;;;;1.00;1.00;;;;;23.17;43.02;101511.04;110507;1262;13113;-47
2022/09/04 03:35:32;;;;;;;;;1.00;1.00;;;;;23.18;42.85;101509.85;110484;1262;13967;-46
2022/09/04 03:37:59;;;;;;;;;1.00;1.00;;;;;23.19;42.95;101513.42;110527;1262;15127;-46
2022/09/04 03:40:26;;;;;;;;;2.00;2.00;;;;;23.17;42.98;101512.14;110510;1262;15129;-46
2022/09/04 03:42:54;;;;;;;;;1.00;1.00;;;;;23.17;42.99;101515.99;110482;1262;14284;-46
2022/09/04 03:45:22;;;;;;;;;2.00;2.00;;;;;23.16;43.01;101514.61;110591;1262;12671;-45
2022/09/04 03:47:49;;;;;;;;;1.00;1.00;;;;;23.15;43.00;101515.46;110437;1263;14448;-45
2022/09/04 03:50:16;;;;;;;;;1.00;1.00;;;;;23.15;43.08;101514.74;110568;1261;12976;-45
2022/09/04 03:52:44;;;;;;;;;2.00;1.00;;;;;23.14;43.02;101518.10;110600;1262;14316;-46
2022/09/04 03:55:11;;;;;;;;;1.00;1.00;;;;;23.15;43.12;101520.21;110481;1262;14283;-46
2022/09/04 03:57:38;;;;;;;;;2.00;2.00;;;;;23.16;43.10;101520.61;110555;1261;14056;-45
2022/09/04 04:00:06;;;;;;;;;1.00;1.00;;;;;23.18;43.13;101524.45;110511;1262;12864;-46
2022/09/04 04:02:33;;;;;;;;;1.00;1.00;;;;;23.17;43.15;101525.46;110490;1262;14202;-47
2022/09/04 04:05:01;;;;;;;;;1.67;1.67;;;;;23.17;43.12;101528.99;110535;1261;14510;-46
2022/09/04 04:07:29;;;;;;;;;1.00;1.00;;;;;23.16;43.08;101527.63;110618;1262;15254;-45
2022/09/04 04:09:56;;;;;;;;;1.33;1.33;;;;;23.16;43.11;101531.92;110492;1262;14694;-46
2022/09/04 04:12:26;;;;;;;;;1.00;1.00;;;;;23.16;43.12;101529.39;110555;1262;13014;-47
2022/09/04 04:14:53;;;;;;;;;1.00;1.00;;;;;23.17;43.14;101536.06;110491;1262;13356;-40
2022/09/04 04:17:20;;;;;;;;;1.00;1.00;;;;;23.17;43.16;101538.94;110489;1261;14664;-46
2022/09/04 04:19:48;;;;;;;;;1.00;1.00;;;;;23.18;43.10;101545.41;110540;1261;14093;-47
2022/09/04 04:22:15;;;;;;;;;1.00;1.00;;;;;23.18;43.15;101546.13;110488;1261;15281;-45
2022/09/04 04:24:42;;;;;;;;;1.33;1.33;;;;;23.17;43.11;101550.56;110439;1262;13912;-46
2022/09/04 04:27:10;;;;;;;;;1.00;1.00;;;;;23.16;43.13;101552.14;110633;1261;13169;-45
2022/09/04 04:29:39;;;;;;;;;1.00;1.00;;;;;23.17;43.25;101556.85;110565;1261;14611;-46
2022/09/04 04:32:13;;;;;;;;;2.00;2.00;;;;;23.17;43.21;101560.16;110610;1262;15159;-46
2022/09/04 04:34:40;;;;;;;;;2.00;1.00;;;;;23.17;43.26;101559.92;110525;1262;14263;-44
2022/09/04 04:37:07;;;;;;;;;1.33;1.33;;;;;23.17;43.21;101555.92;110467;1262;14418;-44
2022/09/04 04:39:35;;;;;;;;;1.00;1.00;;;;;23.18;43.19;101558.54;110451;1262;14331;-46
2022/09/04 04:42:05;;;;;;;;;1.00;1.00;;;;;23.18;43.18;101562.16;110480;1264;13109;-46
2022/09/04 04:47:15;;;;;;;;;2.00;2.00;;;;;23.18;43.18;101563.30;110508;1261;14515;-46
2022/09/04 04:49:42;;;;;;;;;1.00;1.00;;;;;23.18;43.21;101567.45;110626;1262;13967;-45
2022/09/04 04:52:09;;;;;;;;;1.00;1.00;;;;;23.18;43.17;101569.64;110486;1262;14406;-46
2022/09/04 04:54:37;;;;;;;;;1.00;1.00;;;;;23.17;43.27;101566.43;110472;1262;14555;-45
2022/09/04 04:57:04;;;;;;;;;1.00;1.00;;;;;23.18;43.25;101568.75;110483;1264;13370;-46
2022/09/04 04:59:32;;;;;;;;;1.00;1.00;;;;;23.19;43.22;101569.17;110579;1261;13975;-46
2022/09/04 05:01:59;;;;;;;;;1.00;1.00;;;;;23.20;43.21;101579.15;110535;1261;14686;-46
2022/09/04 05:04:28;;;;;;;;;1.00;1.00;;;;;23.21;43.23;101579.02;110545;1262;13897;-42
2022/09/04 05:06:56;;;;;;;;;1.00;1.00;;;;;23.22;43.27;101583.85;110610;1261;14260;-45
2022/09/04 05:09:24;;;;;;;;;1.33;1.33;;;;;23.25;43.18;101589.52;110397;1262;13216;-44
2022/09/04 05:11:51;;;;;;;;;1.00;1.00;;;;;23.27;43.19;101587.06;110472;1261;13826;-46
2022/09/04 05:14:19;;;;;;;;;1.00;1.00;;;;;23.30;43.29;101595.46;110466;1262;15369;-46
2022/09/04 05:16:47;;;;;;;;;1.33;1.33;;;;;23.35;43.25;101599.46;109092;1262;1824384;-45
2022/09/04 05:19:14;;;;;;;;;1.50;1.50;;;;;23.38;43.31;101600.35;110519;1262;14877;-46
2022/09/04 05:21:41;;;;;;;;;2.00;2.00;;;;;23.39;43.41;101600.86;110529;1261;14814;-45
2022/09/04 05:24:09;;;;;;;;;1.33;1.33;;;;;23.41;43.98;101599.52;110500;1262;13207;-45
2022/09/04 05:26:36;;;;;;;;;1.67;1.00;;;;;23.43;44.21;101601.34;110496;1262;14178;-46
2022/09/04 05:29:03;;;;;;;;;2.00;2.00;;;;;23.44;44.13;101604.35;110528;1261;13909;-45
2022/09/04 05:31:31;;;;;;;;;2.00;2.00;;;;;23.43;44.16;101608.05;110511;1262;14734;-46
2022/09/04 05:33:58;;;;;;;;;2.00;2.00;;;;;23.43;44.22;101613.11;110562;1261;15022;-45
2022/09/04 05:36:25;;;;;;;;;2.00;2.00;;;;;23.45;44.08;101616.41;110621;1261;13135;-46
2022/09/04 05:38:53;;;;;;;;;5.00;3.00;;;;;23.43;44.14;101621.68;110509;1262;15559;-46
2022/09/04 05:41:20;;;;;;;;;8.00;7.00;;;;;23.34;43.90;101627.26;110546;1262;20988;-45
2022/09/04 05:43:47;;;;;;;;;8.00;7.00;;;;;23.25;43.64;101628.71;110561;1261;13570;-45
2022/09/04 05:46:14;;;;;;;;;5.67;5.67;;;;;23.19;43.47;101634.98;110484;1262;16781;-45
2022/09/04 05:48:41;;;;;;;;;8.00;7.00;;;;;23.16;43.13;101634.35;110460;1262;14691;-46
2022/09/04 05:51:09;;;;;;;;;5.00;5.00;;;;;23.12;42.95;101638.32;110498;1262;13109;-46
2022/09/04 05:53:36;;;;;;;;;6.67;6.67;;;;;23.12;42.88;101641.30;110419;1262;15391;-45
2022/09/04 05:56:03;;;;;;;;;6.00;6.00;;;;;23.11;42.63;101641.88;110454;1261;13709;-42
2022/09/04 05:58:31;;;;;;;;;6.67;6.67;;;;;23.06;42.39;101646.84;110471;1262;14029;-44
2022/09/04 06:00:59;;;;;;;;;7.00;6.00;;;;;23.00;42.47;101643.17;110469;1261;14589;-44
2022/09/04 06:03:26;;;;;;;;;6.00;6.00;;;;;22.98;42.42;101642.27;110688;1262;17985;-46
2022/09/04 06:05:53;;;;;;;;;6.00;5.00;;;;;22.94;42.53;101643.41;110517;1262;13043;-47
2022/09/04 06:08:21;;;;;;;;;6.00;6.00;;;;;22.95;42.62;101639.16;110507;1262;14864;-44
2022/09/04 06:10:48;;;;;;;;;6.33;6.00;;;;;22.99;42.52;101638.17;110482;1262;14642;-44
2022/09/04 06:13:15;;;;;;;;;6.67;6.33;;;;;23.02;42.61;101641.77;110503;1261;15072;-45
2022/09/04 06:15:43;;;;;;;;;6.00;6.00;;;;;23.04;42.55;101641.77;110510;1261;15062;-46
2022/09/04 06:18:10;;;;;;;;;6.00;6.00;;;;;23.04;42.42;101646.17;110544;1261;13258;-46
2022/09/04 06:20:37;;;;;;;;;6.00;6.00;;;;;22.98;42.33;101642.32;110516;1262;14383;-46
2022/09/04 06:23:04;;;;;;;;;6.00;6.00;;;;;22.93;42.26;101643.04;110506;1261;14017;-46
2022/09/04 06:25:32;;;;;;;;;5.67;5.67;;;;;22.91;42.23;101646.14;110511;1261;14730;-45
2022/09/04 06:27:59;;;;;;;;;6.00;6.00;;;;;22.95;42.17;101646.61;110463;1262;14338;-44
2022/09/04 06:30:26;;;;;;;;;7.00;6.67;;;;;22.98;42.10;101652.09;110522;1262;13075;-45
2022/09/04 06:32:53;;;;;;;;;6.00;6.00;;;;;22.94;42.00;101649.83;110444;1261;13702;-46
2022/09/04 06:35:21;;;;;;;;;4.33;4.33;;;;;22.99;42.06;101650.73;110504;1262;14252;-46
2022/09/04 06:37:49;;;;;;;;;5.50;5.50;;;;;23.05;41.96;101660.06;110395;1261;13721;-43
2022/09/04 06:40:16;;;;;;;;;6.00;6.00;;;;;23.08;41.89;101661.23;110394;1262;15384;-42
2022/09/04 06:42:43;;;;;;;;;6.00;6.00;;;;;23.08;41.85;101658.42;110484;1261;14756;-44
2022/09/04 06:45:11;;;;;;;;;6.00;5.00;;;;;23.16;42.06;101660.85;110502;1262;13082;-45
2022/09/04 06:47:39;;;;;;;;;50.00;40.33;;;;;23.35;42.44;101662.91;110351;1261;14182;-47
2022/09/04 06:50:06;;;;;;;;;65.50;50.00;;;;;23.55;42.71;101656.11;110391;1261;15110;-45
2022/09/04 06:52:36;;;;;;;;;71.00;52.00;;;;;23.59;42.69;101655.23;110433;1261;14599;-46
2022/09/04 06:55:04;;;;;;;;;89.00;59.00;;;;;23.64;42.86;101662.79;110411;1261;14941;-46
2022/09/04 06:57:34;;;;;;;;;93.50;66.50;;;;;23.67;42.95;101655.81;110445;1262;15461;-48
2022/09/04 07:00:01;;;;;;;;;99.00;73.00;;;;;23.70;43.13;101658.77;110370;1261;11608;-46
2022/09/04 07:02:28;;;;;;;;;95.33;66.33;;;;;23.76;43.23;101661.67;110374;1261;14330;-46
2022/09/04 07:04:55;;;;;;;;;82.00;58.67;;;;;23.81;43.36;101660.20;110309;1261;16201;-49
2022/09/04 07:07:22;;;;;;;;;78.00;54.00;;;;;23.81;43.37;101662.15;110343;1262;15164;-46
2022/09/04 07:09:50;;;;;;;;;61.67;43.67;;;;;23.76;43.23;101660.89;110392;1262;15355;-47
2022/09/04 07:12:17;;;;;;;;;57.00;42.00;;;;;23.66;43.38;101663.27;110426;1262;11289;-47
2022/09/04 07:14:44;;;;;;;;;38.67;34.67;;;;;23.66;43.43;101660.50;110461;1261;13108;-46
2022/09/04 07:17:12;;;;;;;;;26.67;24.33;;;;;23.67;43.28;101664.64;110462;1261;25517;-46
2022/09/04 07:19:39;;;;;;;;;28.00;22.33;;;;;23.75;43.13;101664.08;110198;1261;15734;-44
2022/09/04 07:22:06;;;;;;;;;28.00;18.50;;;;;23.97;42.85;101667.61;110451;1261;15856;-47
2022/09/04 07:24:34;;;;;;;;;13.00;12.00;;;;;24.00;42.56;101670.88;110424;1264;16743;-48
2022/09/04 07:27:02;;;;;;;;;21.33;16.00;;;;;23.88;42.66;101675.61;110487;1262;13640;-44
2022/09/04 07:29:29;;;;;;;;;17.33;12.33;;;;;23.75;42.63;101682.01;110511;1261;15686;-46
2022/09/04 07:31:56;;;;;;;;;12.00;10.00;;;;;23.65;42.63;101681.61;110474;1262;15357;-45
2022/09/04 07:34:23;;;;;;;;;14.33;12.00;;;;;23.58;42.63;101682.16;110458;1262;14845;-45
2022/09/04 07:36:52;;;;;;;;;13.00;11.00;;;;;23.58;42.49;101683.67;110513;1261;14958;-45
2022/09/04 07:39:19;;;;;;;;;11.00;11.00;;;;;23.56;42.54;101685.91;110343;1262;12945;-46
2022/09/04 07:41:46;;;;;;;;;11.50;10.00;;;;;23.53;42.41;101694.29;110405;1262;13131;-47
2022/09/04 07:44:13;;;;;;;;;12.00;9.67;;;;;23.52;42.46;101695.65;110480;1261;15476;-44
2022/09/04 07:46:42;;;;;;;;;11.00;11.00;;;;;23.46;42.65;101698.52;110470;1261;15265;-45
2022/09/04 07:49:10;;;;;;;;;13.00;11.33;;;;;23.15;43.19;101699.92;110391;1261;13508;-46
2022/09/04 07:51:37;;;;;;;;;13.00;11.67;;;;;22.98;43.69;101704.81;110403;1262;14857;-48
2022/09/04 07:54:04;;;;;;;;;10.33;10.33;;;;;22.66;44.05;101705.88;110488;1262;18104;-43
2022/09/04 07:56:34;;;;;;;;;14.50;11.00;;;;;22.67;44.18;101708.38;110474;1262;14820;-46
2022/09/04 07:59:01;;;;;;;;;17.00;15.67;;;;;22.68;44.16;101709.33;110442;1262;14824;-47
2022/09/04 08:01:28;;;;;;;;;32.33;28.00;;;;;22.54;44.41;101710.25;110482;1261;14370;-45
2022/09/04 08:03:56;;;;;;;;;16.00;15.50;;;;;22.68;44.57;101710.64;110455;1262;14091;-45
2022/09/04 08:06:23;;;;;;;;;16.00;16.00;;;;;22.75;44.54;101711.36;110522;1262;13144;-46
2022/09/04 08:08:50;;;;;;;;;15.50;12.00;;;;;22.76;44.55;101711.44;110382;1262;13381;-43
2022/09/04 08:11:18;;;;;;;;;14.67;14.33;;;;;22.78;44.46;101714.46;110526;1262;14216;-45
2022/09/04 08:13:46;;;;;;;;;10.00;10.00;;;;;22.77;44.23;101714.34;110486;1262;14913;-46
2022/09/04 08:16:13;;;;;;;;;11.00;11.00;;;;;22.73;44.40;101717.25;110505;1261;14460;-46
2022/09/04 08:18:40;;;;;;;;;10.33;10.33;;;;;22.87;44.24;101719.52;110384;1261;14123;-46
2022/09/04 08:21:09;;;;;;;;;10.67;9.33;;;;;23.04;43.85;101720.04;110525;1262;13130;-46
2022/09/04 08:23:36;;;;;;;;;11.00;11.00;;;;;23.06;43.81;101719.23;110371;1261;14127;-46
2022/09/04 08:26:04;;;;;;;;;11.00;10.00;;;;;23.12;43.76;101721.48;110476;1262;14123;-46
2022/09/04 08:28:32;;;;;;;;;11.00;11.00;;;;;23.06;43.68;101726.71;110418;1262;14346;-45
2022/09/04 08:31:00;;;;;;;;;10.00;10.00;;;;;22.85;43.74;101726.25;110304;1262;14480;-46
2022/09/04 08:33:27;;;;;;;;;10.33;10.33;;;;;22.81;43.88;101731.82;110453;1262;13174;-44
2022/09/04 08:35:55;;;;;;;;;15.00;12.00;;;;;22.82;43.79;101734.58;110464;1262;14206;-42
2022/09/04 08:38:22;;;;;;;;;8.00;8.00;;;;;22.65;43.87;101732.59;110465;1262;15086;-43
2022/09/04 08:40:49;;;;;;;;;12.00;12.00;;;;;22.79;43.80;101738.58;110497;1262;15119;-46
2022/09/04 08:43:17;;;;;;;;;20.00;19.00;;;;;22.88;43.62;101734.84;110448;1261;14064;-44
2022/09/04 08:45:44;;;;;;;;;15.67;15.00;;;;;22.92;43.64;101736.55;110426;1262;14312;-45
2022/09/04 08:48:11;;;;;;;;;11.50;11.50;;;;;22.86;43.71;101739.84;110502;1262;13264;-47
2022/09/04 08:50:39;;;;;;;;;11.50;11.00;;;;;22.92;43.70;101741.30;110431;1261;14810;-47
2022/09/04 08:53:06;;;;;;;;;11.00;10.00;;;;;22.99;43.80;101745.88;110440;1261;14477;-46
2022/09/04 08:55:33;;;;;;;;;11.00;11.00;;;;;23.04;43.82;101743.46;110428;1261;14509;-44
2022/09/04 08:58:01;;;;;;;;;10.33;10.33;;;;;23.01;43.69;101746.26;110471;1261;14614;-44
2022/09/04 09:00:28;;;;;;;;;11.00;11.00;;;;;22.89;43.74;101743.14;110480;1262;13150;-45
2022/09/04 09:02:56;;;;;;;;;11.00;11.00;;;;;23.07;43.70;101748.04;110483;1261;15179;-45
2022/09/04 09:05:24;;;;;;;;;10.67;10.67;;;;;23.11;43.43;101748.02;110508;1262;14830;-47
2022/09/04 09:07:52;;;;;;;;;9.33;9.33;;;;;23.04;43.57;101746.98;110446;1262;15004;-45
2022/09/04 09:10:19;;;;;;;;;12.00;11.00;;;;;23.09;43.52;101740.96;110482;1262;14977;-45
2022/09/04 09:12:46;;;;;;;;;11.00;10.00;;;;;23.06;43.65;101746.34;110486;1261;15368;-44
2022/09/04 09:15:14;;;;;;;;;13.00;12.00;;;;;23.27;43.74;101741.14;110516;1262;12955;-47
2022/09/04 09:17:41;;;;;;;;;10.33;10.33;;;;;23.25;43.51;101739.56;110496;1262;14962;-45
2022/09/04 09:20:09;;;;;;;;;10.00;10.00;;;;;23.13;43.67;101745.29;110503;1261;14772;-46
2022/09/04 09:22:37;;;;;;;;;12.33;11.33;;;;;23.17;43.66;101747.72;110521;1262;14806;-47
2022/09/04 09:25:05;;;;;;;;;13.00;11.67;;;;;23.21;43.74;101746.19;110399;1261;13522;-46
2022/09/04 09:27:32;;;;;;;;;10.67;10.00;;;;;23.38;43.62;101747.79;110414;1262;13093;-45
2022/09/04 09:29:59;;;;;;;;;13.00;11.67;;;;;23.37;43.61;101747.14;110327;1262;14871;-47
2022/09/04 09:32:27;;;;;;;;;11.33;10.33;;;;;23.45;43.26;101748.64;110378;1262;14075;-45
2022/09/04 09:34:55;;;;;;;;;11.00;10.33;;;;;23.54;43.12;101742.89;110456;1262;14834;-46
2022/09/04 09:37:22;;;;;;;;;10.00;10.00;;;;;23.51;43.10;101745.09;110596;1261;14953;-47
2022/09/04 09:39:49;;;;;;;;;11.00;9.50;;;;;23.34;43.22;101746.61;110471;1262;15116;-47
2022/09/04 09:42:16;;;;;;;;;14.50;14.50;;;;;23.27;43.29;101742.40;110506;1262;13272;-45
2022/09/04 09:44:44;;;;;;;;;14.33;13.33;;;;;23.27;43.33;101748.69;110409;1261;15034;-45
2022/09/04 09:47:12;;;;;;;;;16.00;12.00;;;;;23.28;43.21;101751.30;110482;1262;13961;-47
2022/09/04 09:49:39;;;;;;;;;12.67;12.33;;;;;23.24;43.02;101754.67;110474;1262;14853;-44
2022/09/04 09:52:06;;;;;;;;;11.67;10.33;;;;;23.15;43.12;101750.36;110468;1261;15270;-44
2022/09/04 09:54:36;;;;;;;;;15.50;14.00;;;;;23.16;43.08;101749.09;110492;1263;13032;-43
2022/09/04 09:57:03;;;;;;;;;13.67;11.67;;;;;23.23;42.92;101745.61;110506;1262;12545;-41
2022/09/04 09:59:31;;;;;;;;;10.50;9.50;;;;;23.34;42.81;101748.59;110448;1261;14114;-45
2022/09/04 10:01:58;;;;;;;;;11.50;10.50;;;;;23.34;42.77;101753.90;110519;1262;15058;-45
2022/09/04 10:04:27;;;;;;;;;10.33;9.33;;;;;23.13;42.92;101753.09;110429;1262;13532;-47
2022/09/04 10:06:54;;;;;;;;;8.67;8.67;;;;;23.05;42.99;101754.36;110458;1262;14601;-44
2022/09/04 10:09:21;;;;;;;;;11.33;11.00;;;;;22.97;42.94;101750.83;110512;1262;13170;-46
2022/09/04 10:11:49;;;;;;;;;10.00;8.67;;;;;22.97;43.10;101753.80;110358;1262;13977;-46
2022/09/04 10:14:16;;;;;;;;;7.00;7.00;;;;;22.99;43.12;101751.89;110483;1262;14906;-46
2022/09/04 10:16:43;;;;;;;;;8.67;7.33;;;;;23.10;43.10;101755.81;110523;1262;14810;-43
2022/09/04 10:19:11;;;;;;;;;10.00;10.00;;;;;23.22;43.01;101749.41;110487;1261;14838;-46
2022/09/04 10:21:38;;;;;;;;;7.50;7.50;;;;;23.30;42.96;101745.59;110573;1262;13176;-45
2022/09/04 10:24:05;;;;;;;;;11.33;11.33;;;;;23.37;42.67;101744.29;110469;1262;13063;-45
2022/09/04 10:26:34;;;;;;;;;14.00;12.67;;;;;23.41;42.58;101748.35;110424;1262;14882;-46
2022/09/04 10:29:09;;;;;;;;;12.33;11.33;;;;;23.41;42.64;101747.23;110533;1261;15032;-46
2022/09/04 10:31:36;;;;;;;;;10.00;10.00;;;;;23.34;42.55;101744.04;110493;1262;14995;-45
2022/09/04 10:34:04;;;;;;;;;9.33;9.33;;;;;23.25;42.69;101741.23;110451;1262;15274;-49
2022/09/04 10:36:31;;;;;;;;;9.33;9.33;;;;;23.22;42.73;101742.44;110498;1262;13357;-46
2022/09/04 10:41:46;;;;;;;;;9.33;9.33;;;;;23.38;42.76;101742.17;110034;1267;15223;-45
2022/09/04 10:44:14;;;;;;;;;11.67;11.67;;;;;23.39;42.64;101734.34;110046;1267;13814;-45
2022/09/04 10:46:41;;;;;;;;;10.67;10.00;;;;;23.39;42.63;101733.86;110226;1267;14875;-46
2022/09/04 10:49:09;;;;;;;;;12.00;12.00;;;;;23.34;42.71;101735.09;109997;1267;14641;-46
2022/09/04 10:51:37;;;;;;;;;8.00;8.00;;;;;23.35;42.63;101734.61;110147;1268;18018;-44
2022/09/04 10:54:04;;;;;;;;;9.33;9.00;;;;;23.34;42.67;101730.73;109951;1267;14159;-46
2022/09/04 10:56:34;;;;;;;;;11.00;11.00;;;;;23.36;42.47;101728.45;110061;1268;14800;-47
2022/09/04 10:59:01;;;;;;;;;9.00;9.00;;;;;23.39;42.38;101721.63;110063;1268;15076;-45
2022/09/04 11:01:29;;;;;;;;;11.67;10.33;;;;;23.49;42.26;101722.30;110039;1268;14725;-45
2022/09/04 11:03:56;;;;;;;;;11.67;10.67;;;;;23.45;42.32;101724.90;109975;1268;14909;-43
2022/09/04 11:06:25;;;;;;;;;8.00;8.00;;;;;23.46;42.39;101726.77;110077;1268;13098;-45
2022/09/04 11:08:52;;;;;;;;;8.00;8.00;;;;;23.43;42.31;101723.84;110075;1267;14798;-45
2022/09/04 11:11:19;;;;;;;;;10.00;8.67;;;;;23.39;42.37;101727.20;110078;1268;15184;-45
2022/09/04 11:13:47;;;;;;;;;11.33;10.00;;;;;23.33;42.33;101725.02;110087;1267;15036;-46
2022/09/04 11:16:15;;;;;;;;;7.00;7.00;;;;;23.31;42.41;101727.39;110056;1267;14756;-46
2022/09/04 11:18:44;;;;;;;;;8.00;8.00;;;;;23.33;42.27;101727.23;110142;1262;14229;-47